createdAt,value
2018-09-06T00:00:34.208Z,23.22
2018-09-06T00:01:34.198Z,23.35
2018-09-06T00:02:34.208Z,23.26
2018-09-06T00:03:34.176Z,23.22
2018-09-06T00:04:34.162Z,23.32
2018-09-06T00:05:34.151Z,23.32
2018-09-06T00:06:34.140Z,23.21
2018-09-06T00:07:34.152Z,23.23
2018-09-06T00:08:34.117Z,23.34
2018-09-06T00:09:34.105Z,23.29
2018-09-06T00:10:34.096Z,23.26
2018-09-06T00:11:34.083Z,23.26
2018-09-06T00:12:34.095Z,23.29
2018-09-06T00:13:34.059Z,23.23
2018-09-06T00:14:34.048Z,23.22
2018-09-06T00:15:34.037Z,23.18
2018-09-06T00:16:34.026Z,23.29
2018-09-06T00:17:34.040Z,23.23
2018-09-06T00:18:34.003Z,23.18
2018-09-06T00:19:33.996Z,23.19
2018-09-06T00:20:33.982Z,23.12
2018-09-06T00:21:33.969Z,23.11
2018-09-06T00:22:33.982Z,23.21
2018-09-06T00:23:33.947Z,23.15
2018-09-06T00:24:33.935Z,23.19
2018-09-06T00:25:33.925Z,23.15
2018-09-06T00:26:33.923Z,23.16
2018-09-06T00:27:33.926Z,23.15
2018-09-06T00:28:33.893Z,23.14
2018-09-06T00:29:33.881Z,23.15
2018-09-06T00:30:33.872Z,23.18
2018-09-06T00:31:33.857Z,23.18
2018-09-06T00:32:33.873Z,23.21
2018-09-06T00:33:33.835Z,23.15
2018-09-06T00:34:33.824Z,23.16
2018-09-06T00:35:33.812Z,23.14
2018-09-06T00:36:33.800Z,23.21
2018-09-06T00:37:33.814Z,23.12
2018-09-06T00:38:33.778Z,23.07
2018-09-06T00:39:33.767Z,23.14
2018-09-06T00:40:33.755Z,23.14
2018-09-06T00:41:33.744Z,23.16
2018-09-06T00:42:33.756Z,23.14
2018-09-06T00:43:33.721Z,23.16
2018-09-06T00:44:33.710Z,23.12
2018-09-06T00:45:33.698Z,23.18
2018-09-06T00:46:33.688Z,23.18
2018-09-06T00:47:33.699Z,23.12
2018-09-06T00:48:33.663Z,23.15
2018-09-06T00:49:33.652Z,23.07
2018-09-06T00:50:33.641Z,23.18
2018-09-06T00:51:33.629Z,23.11
2018-09-06T00:52:33.642Z,23.07
2018-09-06T00:53:33.607Z,23.14
2018-09-06T00:54:33.595Z,23.14
2018-09-06T00:55:33.587Z,23.14
2018-09-06T00:56:33.573Z,23.18
2018-09-06T00:57:33.590Z,23.14
2018-09-06T00:58:33.549Z,23.11
2018-09-06T00:59:33.539Z,23.07
2018-09-06T01:00:33.527Z,23.09
2018-09-06T01:01:33.516Z,23.14
2018-09-06T01:02:33.527Z,23.06
2018-09-06T01:03:33.493Z,23.07
2018-09-06T01:04:33.483Z,23.03
2018-09-06T01:05:33.471Z,23.15
2018-09-06T01:06:33.460Z,23.09
2018-09-06T01:07:33.473Z,23.01
2018-09-06T01:08:33.436Z,23.11
2018-09-06T01:09:33.425Z,23.12
2018-09-06T01:10:33.413Z,23.12
2018-09-06T01:11:33.403Z,23.03
2018-09-06T01:12:33.393Z,23.00
2018-09-06T01:13:33.405Z,23.07
2018-09-06T01:14:33.368Z,23.04
2018-09-06T01:15:33.357Z,23.06
2018-09-06T01:16:33.347Z,23.01
2018-09-06T01:17:33.338Z,23.09
2018-09-06T01:18:33.347Z,23.07
2018-09-06T01:19:33.316Z,23.03
2018-09-06T01:20:33.299Z,23.04
2018-09-06T01:21:33.290Z,23.00
2018-09-06T01:22:33.280Z,23.04
2018-09-06T01:23:33.290Z,23.11
2018-09-06T01:24:33.258Z,23.09
2018-09-06T01:25:33.243Z,23.09
2018-09-06T01:26:33.234Z,23.07
2018-09-06T01:27:33.222Z,23.04
2018-09-06T01:28:33.233Z,23.01
2018-09-06T01:29:33.199Z,23.07
2018-09-06T01:30:33.188Z,23.09
2018-09-06T01:31:33.177Z,23.07
2018-09-06T01:32:33.164Z,23.12
2018-09-06T01:33:33.179Z,23.04
2018-09-06T01:34:33.142Z,23.04
2018-09-06T01:35:33.132Z,23.03
2018-09-06T01:36:33.119Z,23.03
2018-09-06T01:37:33.109Z,23.09
2018-09-06T01:38:33.213Z,23.06
2018-09-06T01:39:33.085Z,23.01
2018-09-06T01:40:33.075Z,23.01
2018-09-06T01:41:33.065Z,23.03
2018-09-06T01:42:33.052Z,22.99
2018-09-06T01:43:33.062Z,23.01
2018-09-06T01:44:33.030Z,22.99
2018-09-06T01:45:33.021Z,23.04
2018-09-06T01:46:33.007Z,22.99
2018-09-06T01:47:32.998Z,22.99
2018-09-06T01:48:33.006Z,23.01
2018-09-06T01:49:32.974Z,23.06
2018-09-06T01:50:32.962Z,23.07
2018-09-06T01:51:32.952Z,23.06
2018-09-06T01:52:32.940Z,23.06
2018-09-06T01:53:32.950Z,23.00
2018-09-06T01:54:32.916Z,23.03
2018-09-06T01:55:32.906Z,23.01
2018-09-06T01:56:32.893Z,23.01
2018-09-06T01:57:32.886Z,23.00
2018-09-06T01:58:32.896Z,23.06
2018-09-06T01:59:32.858Z,22.96
2018-09-06T02:00:32.850Z,23.01
2018-09-06T02:01:32.838Z,22.97
2018-09-06T02:02:32.826Z,23.04
2018-09-06T02:03:32.837Z,23.07
2018-09-06T02:04:32.803Z,23.06
2018-09-06T02:05:32.791Z,23.00
2018-09-06T02:06:32.783Z,23.04
2018-09-06T02:07:32.770Z,22.94
2018-09-06T02:08:32.780Z,23.01
2018-09-06T02:09:32.747Z,23.11
2018-09-06T02:10:32.735Z,23.04
2018-09-06T02:11:32.724Z,23.12
2018-09-06T02:12:32.711Z,23.00
2018-09-06T02:13:32.727Z,22.96
2018-09-06T02:14:32.690Z,23.01
2018-09-06T02:15:32.682Z,22.97
2018-09-06T02:16:32.671Z,22.93
2018-09-06T02:17:32.655Z,23.00
2018-09-06T02:18:32.668Z,23.15
2018-09-06T02:19:32.633Z,23.03
2018-09-06T02:20:32.621Z,23.07
2018-09-06T02:21:32.609Z,22.96
2018-09-06T02:22:32.604Z,23.00
2018-09-06T02:23:32.613Z,23.03
2018-09-06T02:24:32.737Z,22.99
2018-09-06T02:25:32.566Z,22.96
2018-09-06T02:26:32.554Z,22.99
2018-09-06T02:27:32.541Z,22.99
2018-09-06T02:28:32.555Z,22.97
2018-09-06T02:29:32.522Z,22.94
2018-09-06T02:30:32.509Z,23.00
2018-09-06T02:31:32.498Z,22.97
2018-09-06T02:32:32.485Z,23.07
2018-09-06T02:33:32.499Z,22.97
2018-09-06T02:34:32.465Z,23.03
2018-09-06T02:35:32.452Z,22.97
2018-09-06T02:36:32.440Z,22.97
2018-09-06T02:37:32.429Z,23.04
2018-09-06T02:38:32.442Z,22.99
2018-09-06T02:39:32.407Z,22.96
2018-09-06T02:40:32.399Z,22.97
2018-09-06T02:41:32.385Z,22.96
2018-09-06T02:42:32.371Z,22.99
2018-09-06T02:43:32.363Z,22.97
2018-09-06T02:44:32.376Z,22.96
2018-09-06T02:45:32.338Z,23.00
2018-09-06T02:46:32.327Z,22.97
2018-09-06T02:47:32.318Z,22.96
2018-09-06T02:48:32.333Z,22.94
2018-09-06T02:49:32.294Z,22.96
2018-09-06T02:50:32.283Z,22.99
2018-09-06T02:51:32.271Z,22.94
2018-09-06T02:52:32.260Z,22.97
2018-09-06T02:53:32.249Z,22.99
2018-09-06T02:54:32.259Z,22.94
2018-09-06T02:55:32.226Z,22.91
2018-09-06T02:56:32.215Z,22.94
2018-09-06T02:57:32.203Z,22.97
2018-09-06T02:58:32.197Z,22.94
2018-09-06T02:59:32.204Z,22.99
2018-09-06T03:00:32.172Z,22.94
2018-09-06T03:01:32.158Z,23.03
2018-09-06T03:02:32.147Z,22.96
2018-09-06T03:03:32.136Z,22.97
2018-09-06T03:04:32.148Z,22.94
2018-09-06T03:05:32.112Z,23.01
2018-09-06T03:06:32.109Z,22.97
2018-09-06T03:07:32.089Z,22.97
2018-09-06T03:08:32.081Z,22.94
2018-09-06T03:09:32.090Z,22.94
2018-09-06T03:10:32.055Z,22.94
2018-09-06T03:11:32.045Z,23.04
2018-09-06T03:12:32.033Z,22.94
2018-09-06T03:13:32.022Z,22.94
2018-09-06T03:14:32.034Z,22.94
2018-09-06T03:15:32.079Z,22.99
2018-09-06T03:16:31.995Z,22.91
2018-09-06T03:17:31.977Z,22.94
2018-09-06T03:18:31.965Z,23.00
2018-09-06T03:19:31.982Z,22.93
2018-09-06T03:20:31.943Z,22.96
2018-09-06T03:21:31.932Z,22.94
2018-09-06T03:22:31.920Z,22.96
2018-09-06T03:23:31.909Z,22.91
2018-09-06T03:24:31.920Z,22.94
2018-09-06T03:25:31.885Z,22.99
2018-09-06T03:26:31.875Z,22.91
2018-09-06T03:27:31.867Z,22.94
2018-09-06T03:28:31.853Z,22.91
2018-09-06T03:29:31.869Z,22.94
2018-09-06T03:30:31.830Z,22.93
2018-09-06T03:31:31.821Z,22.93
2018-09-06T03:32:31.808Z,22.93
2018-09-06T03:33:31.805Z,22.94
2018-09-06T03:34:31.808Z,22.94
2018-09-06T03:35:31.774Z,22.97
2018-09-06T03:36:31.767Z,22.93
2018-09-06T03:37:31.752Z,22.93
2018-09-06T03:38:31.739Z,22.93
2018-09-06T03:39:31.752Z,22.94
2018-09-06T03:40:31.718Z,22.93
2018-09-06T03:41:31.707Z,23.03
2018-09-06T03:42:31.694Z,22.91
2018-09-06T03:43:31.682Z,22.94
2018-09-06T03:44:31.756Z,22.89
2018-09-06T03:45:31.659Z,22.94
2018-09-06T03:46:31.652Z,22.96
2018-09-06T03:47:31.639Z,22.91
2018-09-06T03:48:31.626Z,22.89
2018-09-06T03:49:31.639Z,22.85
2018-09-06T03:50:31.604Z,22.86
2018-09-06T03:51:31.596Z,22.91
2018-09-06T03:52:31.593Z,23.01
2018-09-06T03:53:31.571Z,22.96
2018-09-06T03:54:31.587Z,22.93
2018-09-06T03:55:31.550Z,22.96
2018-09-06T03:56:31.536Z,22.91
2018-09-06T03:57:31.531Z,22.89
2018-09-06T03:58:31.513Z,22.96
2018-09-06T03:59:31.534Z,22.91
2018-09-06T04:00:31.497Z,22.89
2018-09-06T04:01:31.479Z,22.86
2018-09-06T04:02:31.475Z,22.89
2018-09-06T04:03:31.455Z,22.82
2018-09-06T04:04:31.470Z,22.88
2018-09-06T04:05:31.433Z,22.89
2018-09-06T04:06:31.430Z,22.85
2018-09-06T04:07:31.412Z,22.99
2018-09-06T04:08:31.401Z,22.86
2018-09-06T04:09:31.415Z,22.91
2018-09-06T04:10:31.379Z,22.91
2018-09-06T04:11:31.367Z,22.85
2018-09-06T04:12:31.359Z,22.86
2018-09-06T04:13:31.346Z,22.82
2018-09-06T04:14:31.361Z,22.85
2018-09-06T04:15:31.322Z,22.94
2018-09-06T04:16:31.311Z,22.94
2018-09-06T04:17:31.299Z,22.91
2018-09-06T04:18:31.396Z,22.94
2018-09-06T04:19:31.312Z,22.81
2018-09-06T04:20:31.268Z,22.86
2018-09-06T04:21:31.254Z,22.86
2018-09-06T04:22:31.250Z,22.85
2018-09-06T04:23:31.238Z,22.93
2018-09-06T04:24:31.248Z,22.89
2018-09-06T04:25:31.211Z,22.81
2018-09-06T04:26:31.201Z,22.89
2018-09-06T04:27:31.189Z,22.86
2018-09-06T04:28:31.176Z,22.79
2018-09-06T04:29:31.167Z,22.88
2018-09-06T04:30:31.177Z,22.81
2018-09-06T04:31:31.147Z,22.85
2018-09-06T04:32:31.131Z,22.86
2018-09-06T04:33:31.121Z,22.75
2018-09-06T04:34:31.113Z,22.82
2018-09-06T04:35:31.159Z,22.93
2018-09-06T04:36:31.088Z,22.86
2018-09-06T04:37:31.076Z,22.89
2018-09-06T04:38:31.065Z,22.88
2018-09-06T04:39:31.061Z,22.88
2018-09-06T04:40:31.066Z,22.88
2018-09-06T04:41:31.031Z,22.82
2018-09-06T04:42:31.020Z,22.85
2018-09-06T04:43:31.008Z,22.89
2018-09-06T04:44:31.001Z,22.89
2018-09-06T04:45:31.008Z,22.89
2018-09-06T04:46:30.975Z,22.79
2018-09-06T04:47:30.962Z,22.79
2018-09-06T04:48:30.951Z,22.86
2018-09-06T04:49:30.942Z,22.81
2018-09-06T04:50:30.953Z,22.86
2018-09-06T04:51:30.919Z,22.89
2018-09-06T04:52:30.908Z,22.97
2018-09-06T04:53:30.899Z,22.86
2018-09-06T04:54:30.886Z,22.78
2018-09-06T04:55:30.898Z,22.85
2018-09-06T04:56:30.862Z,22.85
2018-09-06T04:57:30.851Z,22.86
2018-09-06T04:58:30.920Z,22.97
2018-09-06T04:59:30.829Z,22.82
2018-09-06T05:00:30.840Z,22.82
2018-09-06T05:01:30.805Z,22.84
2018-09-06T05:02:30.793Z,22.82
2018-09-06T05:03:30.789Z,22.82
2018-09-06T05:04:30.789Z,22.85
2018-09-06T05:05:30.784Z,22.84
2018-09-06T05:06:30.748Z,22.84
2018-09-06T05:07:30.738Z,22.96
2018-09-06T05:08:30.727Z,22.78
2018-09-06T05:09:30.716Z,22.82
2018-09-06T05:10:30.727Z,22.81
2018-09-06T05:11:30.692Z,22.85
2018-09-06T05:12:30.683Z,22.76
2018-09-06T05:13:30.670Z,22.88
2018-09-06T05:14:30.660Z,22.91
2018-09-06T05:15:30.670Z,22.74
2018-09-06T05:16:30.638Z,22.84
2018-09-06T05:17:30.625Z,22.89
2018-09-06T05:18:30.614Z,22.93
2018-09-06T05:19:30.603Z,22.84
2018-09-06T05:20:30.613Z,22.94
2018-09-06T05:21:30.580Z,22.88
2018-09-06T05:22:30.569Z,22.86
2018-09-06T05:23:30.555Z,22.85
2018-09-06T05:24:30.546Z,22.84
2018-09-06T05:25:30.560Z,22.74
2018-09-06T05:26:30.523Z,22.84
2018-09-06T05:27:30.511Z,22.86
2018-09-06T05:28:30.500Z,22.86
2018-09-06T05:29:30.490Z,22.84
2018-09-06T05:30:30.503Z,22.79
2018-09-06T05:31:30.468Z,22.84
2018-09-06T05:32:30.456Z,22.81
2018-09-06T05:33:30.444Z,22.88
2018-09-06T05:34:30.435Z,22.86
2018-09-06T05:35:30.445Z,22.88
2018-09-06T05:36:30.417Z,22.81
2018-09-06T05:37:30.399Z,22.84
2018-09-06T05:38:30.391Z,22.85
2018-09-06T05:39:30.375Z,22.85
2018-09-06T05:40:30.391Z,22.89
2018-09-06T05:41:30.358Z,22.84
2018-09-06T05:42:30.343Z,22.86
2018-09-06T05:43:30.333Z,22.79
2018-09-06T05:44:30.321Z,22.88
2018-09-06T05:45:30.333Z,22.86
2018-09-06T05:46:30.299Z,22.89
2018-09-06T05:47:30.314Z,22.85
2018-09-06T05:48:30.274Z,22.84
2018-09-06T05:49:30.264Z,22.91
2018-09-06T05:50:30.275Z,22.81
2018-09-06T05:51:30.240Z,22.85
2018-09-06T05:52:30.231Z,22.85
2018-09-06T05:53:30.234Z,22.88
2018-09-06T05:54:30.206Z,22.85
2018-09-06T05:55:30.219Z,22.85
2018-09-06T05:56:30.184Z,22.76
2018-09-06T05:57:30.172Z,22.79
2018-09-06T05:58:30.167Z,22.82
2018-09-06T05:59:30.171Z,22.91
2018-09-06T06:00:30.165Z,22.82
2018-09-06T06:01:30.127Z,22.89
2018-09-06T06:02:30.116Z,22.84
2018-09-06T06:03:30.108Z,22.85
2018-09-06T06:04:30.094Z,22.85
2018-09-06T06:05:30.110Z,22.89
2018-09-06T06:06:30.070Z,22.94
2018-09-06T06:07:30.060Z,22.84
2018-09-06T06:08:30.049Z,22.86
2018-09-06T06:09:30.038Z,22.85
2018-09-06T06:10:30.029Z,22.84
2018-09-06T06:11:30.037Z,22.99
2018-09-06T06:12:30.005Z,22.84
2018-09-06T06:13:29.992Z,22.89
2018-09-06T06:14:29.979Z,22.93
2018-09-06T06:15:29.969Z,22.82
2018-09-06T06:16:29.981Z,22.88
2018-09-06T06:17:29.945Z,22.89
2018-09-06T06:18:29.935Z,22.91
2018-09-06T06:19:29.925Z,22.82
2018-09-06T06:20:29.914Z,22.84
2018-09-06T06:21:29.926Z,22.84
2018-09-06T06:22:29.890Z,22.88
2018-09-06T06:23:29.877Z,22.85
2018-09-06T06:24:29.867Z,22.97
2018-09-06T06:25:29.857Z,22.85
2018-09-06T06:26:29.869Z,22.93
2018-09-06T06:27:29.833Z,22.85
2018-09-06T06:28:29.822Z,22.88
2018-09-06T06:29:29.813Z,22.84
2018-09-06T06:30:29.803Z,22.85
2018-09-06T06:31:29.809Z,22.91
2018-09-06T06:32:29.778Z,22.94
2018-09-06T06:33:29.765Z,22.86
2018-09-06T06:34:29.756Z,22.79
2018-09-06T06:35:29.744Z,22.88
2018-09-06T06:36:29.753Z,22.86
2018-09-06T06:37:29.719Z,22.88
2018-09-06T06:38:29.709Z,22.81
2018-09-06T06:39:29.698Z,22.86
2018-09-06T06:40:29.686Z,22.88
2018-09-06T06:41:29.698Z,22.82
2018-09-06T06:42:29.663Z,22.89
2018-09-06T06:43:29.651Z,22.82
2018-09-06T06:44:29.641Z,22.89
2018-09-06T06:45:29.629Z,22.91
2018-09-06T06:46:29.644Z,22.94
2018-09-06T06:47:29.607Z,22.99
2018-09-06T06:48:29.595Z,22.94
2018-09-06T06:49:29.584Z,22.94
2018-09-06T06:50:29.662Z,22.99
2018-09-06T06:51:29.583Z,22.97
2018-09-06T06:52:29.549Z,22.97
2018-09-06T06:53:29.539Z,22.96
2018-09-06T06:54:29.526Z,22.94
2018-09-06T06:55:29.515Z,22.96
2018-09-06T06:56:29.526Z,23.04
2018-09-06T06:57:29.496Z,22.97
2018-09-06T06:58:29.519Z,22.99
2018-09-06T06:59:29.471Z,23.00
2018-09-06T07:00:29.459Z,23.03
2018-09-06T07:01:29.472Z,23.09
2018-09-06T07:02:29.437Z,23.07
2018-09-06T07:03:29.448Z,23.12
2018-09-06T07:04:29.502Z,23.14
2018-09-06T07:05:29.403Z,23.07
2018-09-06T07:06:29.413Z,23.04
2018-09-06T07:07:29.427Z,23.11
2018-09-06T07:08:29.368Z,23.01
2018-09-06T07:09:29.359Z,23.09
2018-09-06T07:10:29.350Z,23.11
2018-09-06T07:11:29.356Z,23.15
2018-09-06T07:12:29.324Z,23.16
2018-09-06T07:13:29.312Z,23.14
2018-09-06T07:14:29.303Z,23.00
2018-09-06T07:15:29.301Z,22.86
2018-09-06T07:16:29.299Z,22.75
2018-09-06T07:17:29.414Z,22.49
2018-09-06T07:18:29.499Z,22.35
2018-09-06T07:19:29.315Z,22.26
2018-09-06T07:20:29.261Z,21.94
2018-09-06T07:21:29.341Z,21.85
2018-09-06T07:22:29.232Z,21.66
2018-09-06T07:23:29.227Z,21.43
2018-09-06T07:24:29.187Z,21.24
2018-09-06T07:25:29.181Z,21.08
2018-09-06T07:26:29.190Z,20.91
2018-09-06T07:27:29.207Z,20.94
2018-09-06T07:28:29.144Z,20.83
2018-09-06T07:29:29.144Z,20.58
2018-09-06T07:30:29.158Z,20.44
2018-09-06T07:31:29.149Z,20.42
2018-09-06T07:32:29.104Z,20.44
2018-09-06T07:33:29.086Z,20.46
2018-09-06T07:34:29.080Z,20.46
2018-09-06T07:35:29.206Z,20.38
2018-09-06T07:36:29.136Z,20.41
2018-09-06T07:37:29.071Z,20.38
2018-09-06T07:38:29.052Z,20.54
2018-09-06T07:39:29.044Z,20.44
2018-09-06T07:40:29.019Z,20.44
2018-09-06T07:41:29.040Z,20.64
2018-09-06T07:42:28.983Z,20.64
2018-09-06T07:43:29.245Z,20.66
2018-09-06T07:44:28.962Z,20.71
2018-09-06T07:45:28.956Z,20.64
2018-09-06T07:46:28.962Z,20.66
2018-09-06T07:47:28.933Z,20.72
2018-09-06T07:48:28.981Z,20.68
2018-09-06T07:49:28.907Z,20.42
2018-09-06T07:50:28.898Z,20.44
2018-09-06T07:51:28.894Z,20.44
2018-09-06T07:52:28.906Z,20.53
2018-09-06T07:53:28.861Z,20.57
2018-09-06T07:54:28.858Z,20.46
2018-09-06T07:55:28.998Z,20.41
2018-09-06T07:56:28.840Z,20.46
2018-09-06T07:57:28.855Z,20.48
2018-09-06T07:58:28.811Z,20.58
2018-09-06T07:59:28.799Z,20.63
2018-09-06T08:00:28.785Z,20.78
2018-09-06T08:01:28.787Z,20.78
2018-09-06T08:02:28.790Z,20.64
2018-09-06T08:03:28.752Z,20.57
2018-09-06T08:04:28.739Z,20.44
2018-09-06T08:05:28.730Z,20.46
2018-09-06T08:06:28.738Z,20.35
2018-09-06T08:07:28.758Z,20.27
2018-09-06T08:08:29.431Z,20.16
2018-09-06T08:09:28.696Z,20.04
2018-09-06T08:10:28.671Z,19.94
2018-09-06T08:11:28.662Z,19.90
2018-09-06T08:12:28.686Z,19.85
2018-09-06T08:13:28.645Z,19.86
2018-09-06T08:14:28.626Z,19.85
2018-09-06T08:15:28.617Z,19.95
2018-09-06T08:16:28.611Z,19.86
2018-09-06T08:17:28.631Z,19.85
2018-09-06T08:18:28.604Z,19.86
2018-09-06T08:19:28.589Z,19.90
2018-09-06T08:20:28.575Z,19.83
2018-09-06T08:21:28.551Z,19.71
2018-09-06T08:22:28.569Z,19.65
2018-09-06T08:23:28.526Z,19.57
2018-09-06T08:24:28.530Z,19.61
2018-09-06T08:25:28.503Z,19.67
2018-09-06T08:26:28.496Z,19.60
2018-09-06T08:27:28.640Z,19.50
2018-09-06T08:28:28.470Z,19.50
2018-09-06T08:29:28.456Z,19.50
2018-09-06T08:30:28.476Z,19.46
2018-09-06T08:31:28.579Z,19.47
2018-09-06T08:32:28.446Z,19.49
2018-09-06T08:33:28.414Z,19.55
2018-09-06T08:34:28.414Z,19.53
2018-09-06T08:35:28.405Z,19.61
2018-09-06T08:36:28.401Z,19.57
2018-09-06T08:37:28.435Z,19.49
2018-09-06T08:38:28.363Z,19.50
2018-09-06T08:39:28.346Z,19.53
2018-09-06T08:40:28.334Z,19.60
2018-09-06T08:41:28.326Z,19.52
2018-09-06T08:42:28.345Z,19.53
2018-09-06T08:43:28.297Z,19.46
2018-09-06T08:44:28.298Z,19.46
2018-09-06T08:45:28.373Z,19.47
2018-09-06T08:46:28.268Z,19.62
2018-09-06T08:47:28.341Z,19.55
2018-09-06T08:48:28.288Z,19.57
2018-09-06T08:49:28.234Z,19.68
2018-09-06T08:50:28.245Z,19.58
2018-09-06T08:51:28.215Z,19.72
2018-09-06T08:52:28.330Z,19.76
2018-09-06T08:53:28.197Z,19.75
2018-09-06T08:54:28.190Z,19.78
2018-09-06T08:55:28.175Z,19.86
2018-09-06T08:56:28.164Z,19.82
2018-09-06T08:57:28.165Z,20.00
2018-09-06T08:58:28.176Z,20.00
2018-09-06T08:59:28.120Z,20.10
2018-09-06T09:00:28.108Z,20.19
2018-09-06T09:01:28.096Z,20.25
2018-09-06T09:02:28.174Z,20.27
2018-09-06T09:03:28.077Z,20.42
2018-09-06T09:04:28.061Z,20.41
2018-09-06T09:05:28.052Z,20.48
2018-09-06T09:06:28.071Z,20.58
2018-09-06T09:07:28.055Z,20.66
2018-09-06T09:08:28.047Z,20.64
2018-09-06T09:09:28.030Z,20.73
2018-09-06T09:10:27.998Z,20.73
2018-09-06T09:11:27.987Z,20.91
2018-09-06T09:12:28.020Z,20.97
2018-09-06T09:13:27.965Z,20.96
2018-09-06T09:14:27.967Z,21.06
2018-09-06T09:15:27.939Z,21.16
2018-09-06T09:16:27.938Z,21.18
2018-09-06T09:17:27.946Z,21.15
2018-09-06T09:18:27.966Z,21.19
2018-09-06T09:19:27.891Z,21.21
2018-09-06T09:20:27.882Z,21.33
2018-09-06T09:21:27.877Z,21.42
2018-09-06T09:22:28.012Z,21.58
2018-09-06T09:23:27.847Z,21.56
2018-09-06T09:24:27.833Z,21.64
2018-09-06T09:25:27.879Z,21.67
2018-09-06T09:26:27.815Z,21.75
2018-09-06T09:27:27.827Z,21.85
2018-09-06T09:28:27.796Z,21.82
2018-09-06T09:29:27.826Z,21.85
2018-09-06T09:30:27.804Z,22.01
2018-09-06T09:31:27.757Z,21.98
2018-09-06T09:32:27.775Z,21.98
2018-09-06T09:33:27.736Z,22.04
2018-09-06T09:34:27.765Z,22.14
2018-09-06T09:35:27.713Z,22.15
2018-09-06T09:36:27.702Z,22.23
2018-09-06T09:37:27.691Z,22.21
2018-09-06T09:38:27.746Z,22.21
2018-09-06T09:39:27.683Z,22.17
2018-09-06T09:40:27.707Z,22.05
2018-09-06T09:41:27.651Z,22.01
2018-09-06T09:42:27.664Z,22.12
2018-09-06T09:43:27.699Z,22.20
2018-09-06T09:44:27.629Z,22.33
2018-09-06T09:45:27.600Z,22.36
2018-09-06T09:47:54.014Z,22.93
2018-09-06T09:49:22.816Z,23.16
2018-09-06T09:50:51.546Z,23.14
2018-09-06T09:51:51.531Z,23.34
2018-09-06T09:52:51.544Z,23.14
2018-09-06T09:53:51.509Z,22.96
2018-09-06T09:54:51.508Z,22.91
2018-09-06T09:55:51.506Z,22.99
2018-09-06T09:56:51.490Z,22.84
2018-09-06T09:57:51.510Z,22.67
2018-09-06T09:58:51.461Z,22.74
2018-09-06T09:59:51.442Z,22.51
2018-09-06T10:00:51.480Z,22.48
2018-09-06T10:01:51.489Z,22.56
2018-09-06T10:02:51.433Z,22.52
2018-09-06T10:03:52.470Z,22.49
2018-09-06T10:04:51.387Z,22.52
2018-09-06T10:05:51.386Z,22.46
2018-09-06T10:06:51.395Z,22.67
2018-09-06T10:07:51.383Z,22.78
2018-09-06T10:08:51.385Z,22.89
2018-09-06T10:09:51.331Z,23.07
2018-09-06T10:10:51.327Z,23.26
2018-09-06T10:11:51.331Z,23.34
2018-09-06T10:12:51.338Z,23.56
2018-09-06T10:13:51.314Z,23.56
2018-09-06T10:14:51.301Z,23.63
2018-09-06T10:15:51.283Z,23.63
2018-09-06T10:16:51.256Z,23.62
2018-09-06T10:17:51.252Z,23.63
2018-09-06T10:18:51.282Z,23.67
2018-09-06T10:19:51.231Z,23.57
2018-09-06T10:20:51.212Z,23.42
2018-09-06T10:21:51.234Z,23.00
2018-09-06T10:22:51.205Z,22.94
2018-09-06T10:23:51.217Z,23.04
2018-09-06T10:24:51.181Z,23.14
2018-09-06T10:25:51.155Z,23.14
2018-09-06T10:26:51.163Z,23.23
2018-09-06T10:27:51.140Z,23.23
2018-09-06T10:28:51.149Z,23.26
2018-09-06T10:29:51.125Z,23.39
2018-09-06T10:30:51.100Z,23.57
2018-09-06T10:31:51.088Z,23.68
2018-09-06T10:32:51.095Z,23.67
2018-09-06T10:33:51.090Z,23.67
2018-09-06T10:34:51.056Z,23.54
2018-09-06T10:35:51.045Z,23.67
2018-09-06T10:36:51.033Z,23.62
2018-09-06T10:37:51.042Z,23.69
2018-09-06T10:38:51.036Z,23.56
2018-09-06T10:39:51.043Z,23.37
2018-09-06T10:40:51.003Z,23.39
2018-09-06T10:41:50.994Z,23.23
2018-09-06T10:42:50.966Z,23.16
2018-09-06T10:43:50.991Z,23.03
2018-09-06T10:44:50.945Z,22.94
2018-09-06T10:45:50.935Z,22.97
2018-09-06T10:46:50.922Z,22.86
2018-09-06T10:47:50.995Z,22.89
2018-09-06T10:48:50.925Z,22.70
2018-09-06T10:49:50.892Z,22.70
2018-09-06T10:50:50.882Z,22.72
2018-09-06T10:51:50.870Z,22.56
2018-09-06T10:52:50.858Z,22.59
2018-09-06T10:53:50.872Z,22.59
2018-09-06T10:54:50.836Z,22.67
2018-09-06T10:55:50.823Z,22.56
2018-09-06T10:56:50.822Z,22.54
2018-09-06T10:57:50.802Z,22.49
2018-09-06T10:58:50.812Z,22.54
2018-09-06T10:59:50.778Z,22.49
2018-09-06T11:00:50.768Z,22.52
2018-09-06T11:01:50.758Z,22.42
2018-09-06T11:02:50.791Z,22.54
2018-09-06T11:03:50.761Z,22.46
2018-09-06T11:04:50.725Z,22.36
2018-09-06T11:05:50.714Z,22.17
2018-09-06T11:06:50.706Z,22.20
2018-09-06T11:07:50.728Z,21.93
2018-09-06T11:08:50.778Z,22.06
2018-09-06T11:09:50.692Z,22.12
2018-09-06T11:10:50.661Z,22.21
2018-09-06T11:11:50.657Z,22.30
2018-09-06T11:12:50.670Z,22.35
2018-09-06T11:13:50.626Z,22.46
2018-09-06T11:14:50.672Z,22.66
2018-09-06T11:15:50.610Z,22.66
2018-09-06T11:16:50.593Z,22.84
2018-09-06T11:17:50.621Z,22.85
2018-09-06T11:18:50.578Z,22.88
2018-09-06T11:19:50.585Z,22.94
2018-09-06T11:20:50.548Z,22.93
2018-09-06T11:21:50.575Z,22.85
2018-09-06T11:22:50.528Z,22.84
2018-09-06T11:23:51.305Z,22.96
2018-09-06T11:24:50.527Z,23.03
2018-09-06T11:25:50.501Z,23.23
2018-09-06T11:26:50.483Z,23.50
2018-09-06T11:27:50.538Z,23.69
2018-09-06T11:28:50.465Z,23.97
2018-09-06T11:29:50.474Z,24.05
2018-09-06T11:30:50.439Z,24.15
2018-09-06T11:31:50.427Z,24.05
2018-09-06T11:32:50.446Z,23.90
2018-09-06T11:33:50.421Z,23.82
2018-09-06T11:34:50.421Z,23.60
2018-09-06T11:35:50.403Z,23.45
2018-09-06T11:36:50.409Z,23.44
2018-09-06T11:37:50.397Z,23.35
2018-09-06T11:38:50.360Z,23.26
2018-09-06T11:39:50.398Z,23.38
2018-09-06T11:40:50.330Z,23.45
2018-09-06T11:41:50.319Z,23.64
2018-09-06T11:42:50.314Z,23.67
2018-09-06T11:43:50.344Z,23.75
2018-09-06T11:44:50.316Z,23.93
2018-09-06T11:45:50.302Z,23.86
2018-09-06T11:46:50.378Z,24.11
2018-09-06T11:47:50.454Z,24.14
2018-09-06T11:48:50.256Z,24.12
2018-09-06T11:49:50.275Z,24.27
2018-09-06T11:50:50.226Z,24.45
2018-09-06T11:51:50.207Z,24.70
2018-09-06T11:52:50.230Z,24.83
2018-09-06T11:53:50.193Z,24.67
2018-09-06T11:54:50.202Z,24.45
2018-09-06T11:55:50.172Z,24.31
2018-09-06T11:56:50.149Z,24.31
2018-09-06T11:57:50.149Z,24.21
2018-09-06T11:58:50.163Z,24.11
2018-09-06T11:59:50.140Z,23.92
2018-09-06T12:00:50.116Z,23.99
2018-09-06T12:01:50.095Z,23.84
2018-09-06T12:02:50.091Z,23.79
2018-09-06T12:03:50.076Z,23.72
2018-09-06T12:04:50.119Z,23.64
2018-09-06T12:05:50.059Z,23.56
2018-09-06T12:06:50.041Z,23.42
2018-09-06T12:07:50.045Z,23.50
2018-09-06T12:08:50.020Z,23.50
2018-09-06T12:09:50.034Z,23.54
2018-09-06T12:10:50.013Z,23.31
2018-09-06T12:11:49.991Z,23.29
2018-09-06T12:12:49.987Z,23.47
2018-09-06T12:13:49.976Z,23.34
2018-09-06T12:14:49.982Z,23.44
2018-09-06T12:15:49.943Z,23.56
2018-09-06T12:16:49.940Z,23.59
2018-09-06T12:17:49.920Z,23.64
2018-09-06T12:18:49.907Z,23.81
2018-09-06T12:19:49.920Z,23.84
2018-09-06T12:20:49.891Z,23.82
2018-09-06T12:21:49.876Z,23.93
2018-09-06T12:22:49.870Z,23.92
2018-09-06T12:23:49.850Z,23.96
2018-09-06T12:24:49.876Z,23.81
2018-09-06T12:25:49.934Z,23.81
2018-09-06T12:26:49.816Z,23.74
2018-09-06T12:27:49.807Z,23.72
2018-09-06T12:28:49.800Z,23.68
2018-09-06T12:29:49.821Z,23.77
2018-09-06T12:30:49.776Z,23.86
2018-09-06T12:31:49.764Z,23.93
2018-09-06T12:32:49.753Z,23.90
2018-09-06T12:33:49.756Z,23.89
2018-09-06T12:34:49.749Z,23.94
2018-09-06T12:35:49.728Z,24.00
2018-09-06T12:36:49.732Z,24.11
2018-09-06T12:37:49.702Z,23.99
2018-09-06T12:38:49.763Z,23.86
2018-09-06T12:39:49.698Z,23.81
2018-09-06T12:40:49.671Z,23.96
2018-09-06T12:41:49.652Z,23.90
2018-09-06T12:42:49.642Z,24.00
2018-09-06T12:43:49.635Z,24.08
2018-09-06T12:44:49.652Z,23.99
2018-09-06T12:45:49.613Z,24.11
2018-09-06T12:46:49.610Z,24.23
2018-09-06T12:47:49.585Z,24.30
2018-09-06T12:48:49.589Z,24.29
2018-09-06T12:49:49.589Z,24.33
2018-09-06T12:50:49.562Z,24.27
2018-09-06T12:51:49.547Z,24.15
2018-09-06T12:52:49.532Z,24.00
2018-09-06T12:53:49.530Z,23.84
2018-09-06T12:54:49.538Z,23.93